^^
Saratoga-Weather Station Historical Data
Daily Summary for June 17, 2021 Units:  Both    English   Metric
Daily Weekly Monthly Yearly Custom
  High: Low: Average:
Temperature: 37.9 °F /  3.3 °C 27.5 °F /  -2.5 °C 34 °F /  1.1 °C
Dew Point: 36.3 °F /  2.4 °C 26.6 °F /  -3 °C 32.5 °F /  0.3 °C
Humidity: 97% 92% 95%
Wind Speed: 12.1mph /  19.5km/h - 3.4mph /  5.4km/h
Wind Gust: 17mph /  27.4km/h - -
Wind- - West
Pressure: 30.3 in /  1025.4 hPa 30 in /  1016.3 hPa -
Precipitation: 0.76 in /  19.3 mm    
Historical Graphs
 
 
Tabular Data for June 17, 2021
Time Temperature Dew Point Pressure Wind Wind Speed Wind Gust Humidity Rainfall Rate (Hourly) solar
00:04 27.5 °F /  -2.5 °C 26.6 °F /  -3 °C 30.1in /  1017.6hPa Calm     96% 0in /  0.0mm 0 W/m2
00:09 27.5 °F /  -2.5 °C 26.6 °F /  -3 °C 30.1in /  1017.6hPa Calm     96% 0in /  0.0mm 0 W/m2
00:14 27.7 °F /  -2.4 °C 26.6 °F /  -3 °C 30.1in /  1017.6hPa Calm     96% 0in /  0.0mm 0 W/m2
00:19 27.7 °F /  -2.4 °C 26.6 °F /  -3 °C 30.1in /  1017.6hPa Calm     96% 0in /  0.0mm 0 W/m2
00:24 27.7 °F /  -2.4 °C 26.6 °F /  -3 °C 30.1in /  1017.6hPa Calm     96% 0in /  0.0mm 0 W/m2
00:29 27.7 °F /  -2.4 °C 26.6 °F /  -3 °C 30.1in /  1017.6hPa Calm     96% 0in /  0.0mm 0 W/m2
00:34 27.7 °F /  -2.4 °C 26.6 °F /  -3 °C 30in /  1017.3hPa Calm     96% 0in /  0.0mm 0 W/m2
00:39 27.7 °F /  -2.4 °C 26.6 °F /  -3 °C 30in /  1017.3hPa Calm     96% 0in /  0.0mm 0 W/m2
00:44 27.7 °F /  -2.4 °C 26.6 °F /  -3 °C 30in /  1017.3hPa Calm     96% 0in /  0.0mm 0 W/m2
00:49 27.7 °F /  -2.4 °C 26.6 °F /  -3 °C 30in /  1016.9hPa Calm     96% 0in /  0.0mm 0 W/m2
00:54 27.9 °F /  -2.3 °C 26.8 °F /  -2.9 °C 30in /  1016.9hPa Calm     96% 0in /  0.0mm 0 W/m2
00:59 27.9 °F /  -2.3 °C 26.8 °F /  -2.9 °C 30in /  1016.9hPa Calm     96% 0in /  0.0mm 0 W/m2
01:04 27.9 °F /  -2.3 °C 26.8 °F /  -2.9 °C 30in /  1016.9hPa Calm     96% 0in /  0.0mm 0 W/m2
01:09 27.9 °F /  -2.3 °C 26.8 °F /  -2.9 °C 30in /  1016.6hPa Calm     96% 0in /  0.0mm 0 W/m2
01:14 27.9 °F /  -2.3 °C 26.8 °F /  -2.9 °C 30in /  1016.9hPa Calm     96% 0in /  0.0mm 0 W/m2
01:19 28 °F /  -2.2 °C 27 °F /  -2.8 °C 30in /  1016.9hPa Calm     96% 0in /  0.0mm 0 W/m2
01:24 28 °F /  -2.2 °C 27 °F /  -2.8 °C 30in /  1016.9hPa Calm     96% 0in /  0.0mm 0 W/m2
01:29 28 °F /  -2.2 °C 27 °F /  -2.8 °C 30in /  1016.6hPa Calm     96% 0in /  0.0mm 0 W/m2
01:34 28 °F /  -2.2 °C 27 °F /  -2.8 °C 30in /  1016.6hPa Calm     96% 0in /  0.0mm 0 W/m2
01:39 28 °F /  -2.2 °C 27 °F /  -2.8 °C 30in /  1016.6hPa Calm     96% 0in /  0.0mm 0 W/m2
01:44 28 °F /  -2.2 °C 27 °F /  -2.8 °C 30in /  1016.3hPa Calm     96% 0in /  0.0mm 0 W/m2
01:49 28 °F /  -2.2 °C 27 °F /  -2.8 °C 30in /  1016.3hPa Calm     96% 0in /  0.0mm 0 W/m2
01:54 28 °F /  -2.2 °C 27 °F /  -2.8 °C 30in /  1016.3hPa Calm     96% 0in /  0.0mm 0 W/m2
01:59 27.9 °F /  -2.3 °C 26.8 °F /  -2.9 °C 30in /  1016.3hPa Calm     96% 0in /  0.0mm 0 W/m2
02:04 28 °F /  -2.2 °C 27 °F /  -2.8 °C 30in /  1016.3hPa Calm     96% 0in /  0.0mm 0 W/m2
02:09 28 °F /  -2.2 °C 27 °F /  -2.8 °C 30in /  1016.6hPa Calm     96% 0in /  0.0mm 0 W/m2
02:14 28 °F /  -2.2 °C 27 °F /  -2.8 °C 30in /  1016.6hPa Calm     96% 0in /  0.0mm 0 W/m2
02:19 28 °F /  -2.2 °C 27 °F /  -2.8 °C 30in /  1016.6hPa Calm     96% 0in /  0.0mm 0 W/m2
02:24 28 °F /  -2.2 °C 27 °F /  -2.8 °C 30in /  1016.6hPa Calm     96% 0in /  0.0mm 0 W/m2
02:29 28 °F /  -2.2 °C 27 °F /  -2.8 °C 30in /  1016.6hPa Calm     96% 0in /  0.0mm 0 W/m2
02:34 28 °F /  -2.2 °C 27 °F /  -2.8 °C 30in /  1016.6hPa Calm     96% 0in /  0.0mm 0 W/m2
02:39 28 °F /  -2.2 °C 27 °F /  -2.8 °C 30in /  1016.6hPa Calm     96% 0in /  0.0mm 0 W/m2
02:44 28 °F /  -2.2 °C 27 °F /  -2.8 °C 30in /  1016.6hPa Calm     96% 0in /  0.0mm 0 W/m2
02:49 28 °F /  -2.2 °C 27 °F /  -2.8 °C 30in /  1016.6hPa Calm     96% 0in /  0.0mm 0 W/m2
02:54 28 °F /  -2.2 °C 27 °F /  -2.8 °C 30in /  1016.6hPa Calm     96% 0in /  0.0mm 0 W/m2
02:59 28.2 °F /  -2.1 °C 27.1 °F /  -2.7 °C 30in /  1016.6hPa Calm     96% 0in /  0.0mm 0 W/m2
03:04 28.2 °F /  -2.1 °C 27.1 °F /  -2.7 °C 30in /  1016.6hPa Calm     96% 0in /  0.0mm 0 W/m2
03:09 28.2 °F /  -2.1 °C 27.1 °F /  -2.7 °C 30in /  1016.6hPa Calm     96% 0in /  0.0mm 0 W/m2
03:14 28.2 °F /  -2.1 °C 27.1 °F /  -2.7 °C 30in /  1016.6hPa Calm     96% 0in /  0.0mm 0 W/m2
03:19 28.2 °F /  -2.1 °C 27.1 °F /  -2.7 °C 30in /  1016.3hPa Calm     96% 0in /  0.0mm 0 W/m2
03:24 28.2 °F /  -2.1 °C 27.1 °F /  -2.7 °C 30in /  1016.3hPa Calm     96% 0in /  0.0mm 0 W/m2
03:29 28.2 °F /  -2.1 °C 27.1 °F /  -2.7 °C 30in /  1016.3hPa Calm     96% 0in /  0.0mm 0 W/m2
03:34 28.2 °F /  -2.1 °C 27.1 °F /  -2.7 °C 30in /  1016.3hPa Calm     96% 0in /  0.0mm 0 W/m2
03:39 28.2 °F /  -2.1 °C 27.1 °F /  -2.7 °C 30in /  1016.3hPa Calm     96% 0in /  0.0mm 0 W/m2
03:44 28.2 °F /  -2.1 °C 27.1 °F /  -2.7 °C 30in /  1016.3hPa Calm     96% 0in /  0.0mm 0 W/m2
03:49 28.2 °F /  -2.1 °C 27.1 °F /  -2.7 °C 30in /  1016.3hPa Calm     96% 0in /  0.0mm 0 W/m2
03:54 28.4 °F /  -2 °C 27.3 °F /  -2.6 °C 30in /  1016.6hPa Calm     96% 0in /  0.0mm 0 W/m2
03:59 28.4 °F /  -2 °C 27.3 °F /  -2.6 °C 30in /  1016.9hPa Calm     96% 0in /  0.0mm 0 W/m2
04:04 28.6 °F /  -1.9 °C 27.5 °F /  -2.5 °C 30in /  1016.9hPa Calm     96% 0in /  0.0mm 0 W/m2
04:09 28.6 °F /  -1.9 °C 27.5 °F /  -2.5 °C 30in /  1016.9hPa Calm     96% 0in /  0.0mm 0 W/m2
04:14 28.6 °F /  -1.9 °C 27.5 °F /  -2.5 °C 30in /  1016.9hPa Calm     96% 0in /  0.0mm 0 W/m2
04:19 28.6 °F /  -1.9 °C 27.5 °F /  -2.5 °C 30in /  1016.9hPa Calm     96% 0in /  0.0mm 0 W/m2
04:24 28.6 °F /  -1.9 °C 27.5 °F /  -2.5 °C 30in /  1016.9hPa Calm     96% 0in /  0.0mm 0 W/m2
04:29 28.6 °F /  -1.9 °C 27.5 °F /  -2.5 °C 30in /  1016.9hPa Calm     96% 0in /  0.0mm 0 W/m2
04:34 28.6 °F /  -1.9 °C 27.5 °F /  -2.5 °C 30in /  1017.3hPa Calm     96% 0in /  0.0mm 0 W/m2
04:39 28.8 °F /  -1.8 °C 27.7 °F /  -2.4 °C 30in /  1017.3hPa Calm     96% 0in /  0.0mm 0 W/m2
04:44 28.8 °F /  -1.8 °C 27.7 °F /  -2.4 °C 30in /  1016.9hPa Calm     96% 0in /  0.0mm 0 W/m2
04:49 28.8 °F /  -1.8 °C 27.7 °F /  -2.4 °C 30in /  1016.9hPa Calm     96% 0in /  0.0mm 0 W/m2
04:54 28.8 °F /  -1.8 °C 27.7 °F /  -2.4 °C 30in /  1016.9hPa Calm     96% 0in /  0.0mm 0 W/m2
04:59 28.8 °F /  -1.8 °C 27.7 °F /  -2.4 °C 30in /  1016.9hPa Calm     96% 0in /  0.0mm 0 W/m2
05:04 28.8 °F /  -1.8 °C 27.7 °F /  -2.4 °C 30in /  1016.9hPa Calm     96% 0in /  0.0mm 0 W/m2
05:09 28.9 °F /  -1.7 °C 27.9 °F /  -2.3 °C 30in /  1016.9hPa Calm     96% 0in /  0.0mm 0 W/m2
05:14 28.9 °F /  -1.7 °C 27.9 °F /  -2.3 °C 30in /  1016.6hPa Calm     96% 0in /  0.0mm 0 W/m2
05:19 28.9 °F /  -1.7 °C 27.9 °F /  -2.3 °C 30in /  1016.6hPa Calm     96% 0in /  0.0mm 0 W/m2
05:24 29.1 °F /  -1.6 °C 28 °F /  -2.2 °C 30in /  1016.9hPa Calm     96% 0in /  0.0mm 0 W/m2
05:29 29.1 °F /  -1.6 °C 28 °F /  -2.2 °C 30in /  1016.9hPa Calm     96% 0in /  0.0mm 0 W/m2
05:34 29.1 °F /  -1.6 °C 28 °F /  -2.2 °C 30in /  1016.9hPa Calm     96% 0in /  0.0mm 0 W/m2
05:39 29.1 °F /  -1.6 °C 28 °F /  -2.2 °C 30in /  1016.9hPa Calm     96% 0in /  0.0mm 0 W/m2
05:44 29.1 °F /  -1.6 °C 28 °F /  -2.2 °C 30in /  1016.9hPa Calm     96% 0in /  0.0mm 0 W/m2
05:49 29.1 °F /  -1.6 °C 28 °F /  -2.2 °C 30in /  1016.9hPa Calm     96% 0in /  0.0mm 0 W/m2
05:54 29.3 °F /  -1.5 °C 28.2 °F /  -2.1 °C 30in /  1016.9hPa Calm     96% 0in /  0.0mm 0 W/m2
05:59 29.7 °F /  -1.3 °C 28.6 °F /  -1.9 °C 30in /  1016.6hPa Calm     96% 0in /  0.0mm 0 W/m2
06:04 29.8 °F /  -1.2 °C 29.1 °F /  -1.6 °C 30in /  1016.9hPa Calm     97% 0in /  0.0mm 0 W/m2
06:09 29.8 °F /  -1.2 °C 29.1 °F /  -1.6 °C 30in /  1016.6hPa Calm     97% 0in /  0.0mm 0 W/m2
06:14 30.6 °F /  -0.8 °C 29.8 °F /  -1.2 °C 30in /  1016.6hPa Calm     97% 0in /  0.0mm 0 W/m2
06:19 30.9 °F /  -0.6 °C 30.2 °F /  -1 °C 30in /  1016.6hPa Calm     97% 0in /  0.0mm 0 W/m2
06:25 31.1 °F /  -0.5 °C 30.4 °F /  -0.9 °C 30in /  1016.6hPa Calm     97% 0in /  0.0mm 0 W/m2
06:30 31.3 °F /  -0.4 °C 30.6 °F /  -0.8 °C 30in /  1016.6hPa Calm     97% 0in /  0.0mm 0 W/m2
06:35 31.3 °F /  -0.4 °C 30.6 °F /  -0.8 °C 30in /  1016.6hPa Calm     97% 0in /  0.0mm 0 W/m2
06:40 31.5 °F /  -0.3 °C 30.7 °F /  -0.7 °C 30in /  1016.6hPa Calm     97% 0in /  0.0mm 0 W/m2
06:45 31.5 °F /  -0.3 °C 30.7 °F /  -0.7 °C 30in /  1016.6hPa Calm     97% 0in /  0.0mm 0 W/m2
06:50 31.3 °F /  -0.4 °C 30.6 °F /  -0.8 °C 30in /  1016.6hPa Calm     97% 0in /  0.0mm 0 W/m2
06:55 31.5 °F /  -0.3 °C 30.4 °F /  -0.9 °C 30in /  1016.6hPa Calm     96% 0in /  0.0mm 0 W/m2
07:00 31.5 °F /  -0.3 °C 30.7 °F /  -0.7 °C 30in /  1016.9hPa Calm     97% 0in /  0.0mm 0 W/m2
07:05 31.5 °F /  -0.3 °C 30.7 °F /  -0.7 °C 30in /  1016.9hPa Calm     97% 0in /  0.0mm 0 W/m2
07:10 31.5 °F /  -0.3 °C 30.7 °F /  -0.7 °C 30in /  1016.9hPa Calm     97% 0in /  0.0mm 0 W/m2
07:15 31.5 °F /  -0.3 °C 30.7 °F /  -0.7 °C 30in /  1016.9hPa Calm     97% 0in /  0.0mm 0 W/m2
07:20 31.5 °F /  -0.3 °C 30.7 °F /  -0.7 °C 30in /  1016.9hPa Calm     97% 0in /  0.0mm 0 W/m2
07:25 31.5 °F /  -0.3 °C 30.7 °F /  -0.7 °C 30in /  1016.9hPa Calm     97% 0in /  0.0mm 0 W/m2
07:30 31.6 °F /  -0.2 °C 30.9 °F /  -0.6 °C 30in /  1016.9hPa Calm     97% 0in /  0.0mm 0 W/m2
07:35 31.6 °F /  -0.2 °C 30.9 °F /  -0.6 °C 30in /  1016.9hPa Calm     97% 0in /  0.0mm 0 W/m2
07:40 31.5 °F /  -0.3 °C 30.7 °F /  -0.7 °C 30in /  1016.9hPa Calm     97% 0in /  0.0mm 0 W/m2
07:45 31.5 °F /  -0.3 °C 30.7 °F /  -0.7 °C 30in /  1016.9hPa Calm     97% 0in /  0.0mm 0 W/m2
07:50 31.5 °F /  -0.3 °C 30.4 °F /  -0.9 °C 30in /  1016.9hPa Calm     96% 0in /  0.0mm 0 W/m2
07:55 31.5 °F /  -0.3 °C 30.7 °F /  -0.7 °C 30in /  1017.3hPa Calm     97% 0in /  0.0mm 0 W/m2
08:00 31.5 °F /  -0.3 °C 30.7 °F /  -0.7 °C 30in /  1016.9hPa Calm     97% 0in /  0.0mm 0 W/m2
08:05 31.6 °F /  -0.2 °C 30.9 °F /  -0.6 °C 30in /  1016.9hPa Calm     97% 0in /  0.0mm 0 W/m2
08:10 31.8 °F /  -0.1 °C 31.1 °F /  -0.5 °C 30in /  1017.3hPa Calm     97% 0in /  0.0mm 0 W/m2
08:15 31.8 °F /  -0.1 °C 31.1 °F /  -0.5 °C 30in /  1017.3hPa Calm     97% 0in /  0.0mm 0 W/m2
08:20 32 °F /  0 °C 31.3 °F /  -0.4 °C 30.1in /  1017.6hPa Calm     97% 0in /  0.0mm 0 W/m2
08:25 32.2 °F /  0.1 °C 31.5 °F /  -0.3 °C 30in /  1017.3hPa Calm     97% 0in /  0.0mm 0 W/m2
08:30 32.4 °F /  0.2 °C 31.6 °F /  -0.2 °C 30.1in /  1017.6hPa Calm   1mph /  1.6km/h 97% 0in /  0.0mm 0 W/m2
08:35 32.5 °F /  0.3 °C 31.8 °F /  -0.1 °C 30.1in /  1017.6hPa Calm     97% 0in /  0.0mm 0 W/m2
08:40 32.7 °F /  0.4 °C 32 °F /  0 °C 30.1in /  1017.6hPa ENE 1mph /  1.6km/h 1mph /  1.6km/h 97% 0in /  0.0mm 0 W/m2
08:45 33.1 °F /  0.6 °C 32.4 °F /  0.2 °C 30in /  1017.3hPa SW 2mph /  3.2km/h 3mph /  4.8km/h 97% 0in /  0.0mm 0 W/m2
08:50 33.3 °F /  0.7 °C 32.5 °F /  0.3 °C 30in /  1017.3hPa NNW 0.9mph /  1.4km/h 2mph /  3.2km/h 97% 0in /  0.0mm 0 W/m2
08:55 33.4 °F /  0.8 °C 32.7 °F /  0.4 °C 30.1in /  1017.6hPa NW 2.9mph /  4.7km/h 4mph /  6.4km/h 97% 0in /  0.0mm 0 W/m2
09:00 33.4 °F /  0.8 °C 32.7 °F /  0.4 °C 30.1in /  1017.6hPa Calm   3mph /  4.8km/h 97% 0in /  0.0mm 0 W/m2
09:05 33.4 °F /  0.8 °C 32.7 °F /  0.4 °C 30.1in /  1017.6hPa WNW 0.9mph /  1.4km/h 3mph /  4.8km/h 97% 0in /  0.0mm 0 W/m2
09:10 33.6 °F /  0.9 °C 32.9 °F /  0.5 °C 30.1in /  1017.6hPa WSW 2.9mph /  4.7km/h 9mph /  14.5km/h 97% 0in /  0.0mm 0 W/m2
09:15 33.8 °F /  1 °C 33.1 °F /  0.6 °C 30.1in /  1017.6hPa WNW 2mph /  3.2km/h 4mph /  6.4km/h 97% 0in /  0.0mm 0 W/m2
09:20 34 °F /  1.1 °C 33.3 °F /  0.7 °C 30.1in /  1018.0hPa West 2mph /  3.2km/h 9mph /  14.5km/h 97% 0in /  0.0mm 0 W/m2
09:25 34 °F /  1.1 °C 33.3 °F /  0.7 °C 30.1in /  1017.6hPa WNW 0.9mph /  1.4km/h 3mph /  4.8km/h 97% 0in /  0.0mm 0 W/m2
09:30 34 °F /  1.1 °C 32.9 °F /  0.5 °C 30.1in /  1017.6hPa WNW 4.9mph /  7.9km/h 7mph /  11.3km/h 96% 0in /  0.0mm 0 W/m2
09:35 34.2 °F /  1.2 °C 33.1 °F /  0.6 °C 30.1in /  1017.6hPa WNW 6.9mph /  11.1km/h 9mph /  14.5km/h 96% 0in /  0.0mm 0 W/m2
09:40 34.3 °F /  1.3 °C 33.6 °F /  0.9 °C 30.1in /  1018.0hPa NW 2mph /  3.2km/h 7mph /  11.3km/h 97% 0in /  0.0mm 0 W/m2
09:45 34.3 °F /  1.3 °C 33.3 °F /  0.7 °C 30.1in /  1018.0hPa NW 2mph /  3.2km/h 9mph /  14.5km/h 96% 0in /  0.0mm 0 W/m2
09:50 34.3 °F /  1.3 °C 33.3 °F /  0.7 °C 30.1in /  1018.0hPa NW 0.9mph /  1.4km/h 8mph /  12.9km/h 96% 0in /  0.0mm 0 W/m2
09:55 34.3 °F /  1.3 °C 33.3 °F /  0.7 °C 30.1in /  1018.0hPa West 6mph /  9.7km/h 12mph /  19.3km/h 96% 0in /  0.0mm 5 W/m2
10:00 34.5 °F /  1.4 °C 33.4 °F /  0.8 °C 30.1in /  1018.0hPa WNW 2mph /  3.2km/h 5mph /  8km/h 96% 0in /  0.0mm 7 W/m2
10:05 34.7 °F /  1.5 °C 33.6 °F /  0.9 °C 30.1in /  1018.3hPa WNW 4mph /  6.4km/h 9mph /  14.5km/h 96% 0in /  0.0mm 7 W/m2
10:10 34.7 °F /  1.5 °C 33.6 °F /  0.9 °C 30.1in /  1018.0hPa WNW 6mph /  9.7km/h 9mph /  14.5km/h 96% 0in /  0.0mm 9 W/m2
10:15 34.7 °F /  1.5 °C 33.6 °F /  0.9 °C 30.1in /  1018.3hPa SW 2.9mph /  4.7km/h 5mph /  8km/h 96% 0in /  0.0mm 7 W/m2
10:20 34.9 °F /  1.6 °C 33.8 °F /  1 °C 30.1in /  1018.6hPa WNW 4mph /  6.4km/h 7mph /  11.3km/h 96% 0in /  0.0mm 7 W/m2
10:25 34.9 °F /  1.6 °C 33.8 °F /  1 °C 30.1in /  1018.6hPa West 2.9mph /  4.7km/h 7mph /  11.3km/h 96% 0in /  0.0mm 7 W/m2
10:30 34.9 °F /  1.6 °C 33.8 °F /  1 °C 30.1in /  1018.6hPa West 2mph /  3.2km/h 4mph /  6.4km/h 96% 0in /  0.0mm 9 W/m2
10:35 34.9 °F /  1.6 °C 33.8 °F /  1 °C 30.1in /  1018.6hPa WSW 9mph /  14.5km/h 9mph /  14.5km/h 96% 0in /  0.0mm 12 W/m2
10:40 35.1 °F /  1.7 °C 34 °F /  1.1 °C 30.1in /  1018.6hPa WNW 6.9mph /  11.1km/h 8mph /  12.9km/h 96% 0in /  0.0mm 12 W/m2
10:52 35.2 °F /  1.8 °C 34 °F /  1.1 °C 30.1in /  1019.0hPa West 2mph /  3.2km/h 8mph /  12.9km/h 95% 0in /  0.0mm 11 W/m2
10:57 35.2 °F /  1.8 °C 34 °F /  1.1 °C 30.1in /  1019.0hPa NW 4.9mph /  7.9km/h 9mph /  14.5km/h 95% 0in /  0.0mm 9 W/m2
11:02 35.4 °F /  1.9 °C 34.3 °F /  1.3 °C 30.1in /  1019.0hPa WNW 2.9mph /  4.7km/h 4mph /  6.4km/h 96% 0in /  0.0mm 12 W/m2
11:07 35.4 °F /  1.9 °C 34.3 °F /  1.3 °C 30.1in /  1019.0hPa WSW 2mph /  3.2km/h 8mph /  12.9km/h 96% 0in /  0.0mm 11 W/m2
11:12 35.4 °F /  1.9 °C 34.2 °F /  1.2 °C 30.1in /  1019.0hPa West 4mph /  6.4km/h 6mph /  9.7km/h 95% 0in /  0.0mm 12 W/m2
11:17 35.6 °F /  2 °C 34.3 °F /  1.3 °C 30.1in /  1019.0hPa West 0.9mph /  1.4km/h 4mph /  6.4km/h 95% 0in /  0.0mm 12 W/m2
11:22 35.6 °F /  2 °C 34.3 °F /  1.3 °C 30.1in /  1019.0hPa WNW 2mph /  3.2km/h 6mph /  9.7km/h 95% 0in /  0.0mm 14 W/m2
11:27 35.8 °F /  2.1 °C 34.5 °F /  1.4 °C 30.1in /  1019.3hPa Calm   6mph /  9.7km/h 95% 0in /  0.0mm 12 W/m2
11:32 36 °F /  2.2 °C 34.7 °F /  1.5 °C 30.1in /  1019.3hPa West 0.9mph /  1.4km/h 3mph /  4.8km/h 95% 0.01in /  0.2mm 14 W/m2
11:37 36 °F /  2.2 °C 34.7 °F /  1.5 °C 30.1in /  1019.3hPa WSW 2mph /  3.2km/h 4mph /  6.4km/h 95% 0.01in /  0.2mm 12 W/m2
11:42 36.1 °F /  2.3 °C 34.9 °F /  1.6 °C 30.1in /  1019.3hPa WNW 2mph /  3.2km/h 4mph /  6.4km/h 95% 0.01in /  0.2mm 12 W/m2
11:47 36.1 °F /  2.3 °C 34.9 °F /  1.6 °C 30.1in /  1019.3hPa West 0.9mph /  1.4km/h 2mph /  3.2km/h 95% 0.02in /  0.5mm 11 W/m2
11:52 36.1 °F /  2.3 °C 34.9 °F /  1.6 °C 30.1in /  1019.6hPa WNW 2mph /  3.2km/h 2mph /  3.2km/h 95% 0.02in /  0.5mm 9 W/m2
11:57 36.1 °F /  2.3 °C 34.9 °F /  1.6 °C 30.1in /  1019.6hPa West 2.9mph /  4.7km/h 7mph /  11.3km/h 95% 0.02in /  0.5mm 7 W/m2
12:02 36 °F /  2.2 °C 34.7 °F /  1.5 °C 30.1in /  1019.6hPa SW 2.9mph /  4.7km/h 7mph /  11.3km/h 95% 0.02in /  0.5mm 7 W/m2
12:07 35.8 °F /  2.1 °C 34.5 °F /  1.4 °C 30.1in /  1019.6hPa WSW 2mph /  3.2km/h 7mph /  11.3km/h 95% 0.02in /  0.5mm 7 W/m2
12:12 35.8 °F /  2.1 °C 34.5 °F /  1.4 °C 30.1in /  1019.6hPa West 2mph /  3.2km/h 4mph /  6.4km/h 95% 0.02in /  0.5mm 7 W/m2
12:17 35.8 °F /  2.1 °C 34.5 °F /  1.4 °C 30.1in /  1019.6hPa WNW 2.9mph /  4.7km/h 4mph /  6.4km/h 95% 0.02in /  0.5mm 9 W/m2
12:22 35.8 °F /  2.1 °C 34.5 °F /  1.4 °C 30.1in /  1019.6hPa SW 2.9mph /  4.7km/h 7mph /  11.3km/h 95% 0.02in /  0.5mm 11 W/m2
12:27 35.8 °F /  2.1 °C 34.5 °F /  1.4 °C 30.1in /  1019.6hPa WNW 2.9mph /  4.7km/h 7mph /  11.3km/h 95% 0.02in /  0.5mm 11 W/m2
12:32 36 °F /  2.2 °C 34.7 °F /  1.5 °C 30.1in /  1019.6hPa WNW 2.9mph /  4.7km/h 8mph /  12.9km/h 95% 0.02in /  0.5mm 14 W/m2
12:37 36 °F /  2.2 °C 34.7 °F /  1.5 °C 30.1in /  1019.6hPa West 4mph /  6.4km/h 8mph /  12.9km/h 95% 0.02in /  0.5mm 16 W/m2
12:42 36.1 °F /  2.3 °C 35.1 °F /  1.7 °C 30.1in /  1019.6hPa West 2mph /  3.2km/h 5mph /  8km/h 96% 0.02in /  0.5mm 19 W/m2
12:47 36.1 °F /  2.3 °C 34.9 °F /  1.6 °C 30.1in /  1019.6hPa WNW 4mph /  6.4km/h 8mph /  12.9km/h 95% 0.01in /  0.2mm 21 W/m2
12:52 36.3 °F /  2.4 °C 35.1 °F /  1.7 °C 30.1in /  1019.6hPa West 6mph /  9.7km/h 10mph /  16.1km/h 95% 0.01in /  0.2mm 25 W/m2
13:02 36.7 °F /  2.6 °C 35.4 °F /  1.9 °C 30.1in /  1020.0hPa West 6.9mph /  11.1km/h 9mph /  14.5km/h 95% 0in /  0.0mm 40 W/m2
13:07 36.7 °F /  2.6 °C 35.4 °F /  1.9 °C 30.1in /  1020.0hPa West 6.9mph /  11.1km/h 9mph /  14.5km/h 95% 0.01in /  0.2mm 56 W/m2
13:12 36.7 °F /  2.6 °C 35.4 °F /  1.9 °C 30.1in /  1020.0hPa West 6mph /  9.7km/h 8mph /  12.9km/h 95% 0.02in /  0.5mm 76 W/m2
13:17 37 °F /  2.8 °C 35.8 °F /  2.1 °C 30.1in /  1020.0hPa WNW 2.9mph /  4.7km/h 9mph /  14.5km/h 95% 0.05in /  1.3mm 58 W/m2
13:22 37 °F /  2.8 °C 35.8 °F /  2.1 °C 30.1in /  1020.0hPa WSW 8.1mph /  13km/h 9mph /  14.5km/h 95% 0.06in /  1.5mm 54 W/m2
13:27 37 °F /  2.8 °C 35.8 °F /  2.1 °C 30.1in /  1020.0hPa West 4mph /  6.4km/h 8mph /  12.9km/h 95% 0.08in /  2.0mm 67 W/m2
13:32 37.2 °F /  2.9 °C 36 °F /  2.2 °C 30.1in /  1020.0hPa WNW 6.9mph /  11.1km/h 10mph /  16.1km/h 95% 0.09in /  2.3mm 123 W/m2
13:37 37.4 °F /  3 °C 36.1 °F /  2.3 °C 30.1in /  1020.0hPa WNW 2.9mph /  4.7km/h 9mph /  14.5km/h 95% 0.11in /  2.8mm 98 W/m2
13:42 37.6 °F /  3.1 °C 36 °F /  2.2 °C 30.1in /  1020.0hPa West 6mph /  9.7km/h 8mph /  12.9km/h 94% 0.13in /  3.3mm 77 W/m2
13:47 37.6 °F /  3.1 °C 36 °F /  2.2 °C 30.1in /  1020.0hPa West 2mph /  3.2km/h 10mph /  16.1km/h 94% 0.14in /  3.6mm 120 W/m2
13:52 37.6 °F /  3.1 °C 36 °F /  2.2 °C 30.1in /  1020.0hPa West 6mph /  9.7km/h 11mph /  17.7km/h 94% 0.16in /  4.1mm 135 W/m2
13:57 37.6 °F /  3.1 °C 36 °F /  2.2 °C 30.1in /  1020.3hPa WSW 4mph /  6.4km/h 4mph /  6.4km/h 94% 0.17in /  4.3mm 93 W/m2
14:02 37.6 °F /  3.1 °C 36 °F /  2.2 °C 30.1in /  1020.3hPa WNW 4mph /  6.4km/h 11mph /  17.7km/h 94% 0.19in /  4.8mm 84 W/m2
14:07 37.6 °F /  3.1 °C 36 °F /  2.2 °C 30.1in /  1020.3hPa NW 8.1mph /  13km/h 10mph /  16.1km/h 94% 0.19in /  4.8mm 105 W/m2
14:12 37.6 °F /  3.1 °C 36 °F /  2.2 °C 30.1in /  1020.3hPa WSW 10.1mph /  16.3km/h 10mph /  16.1km/h 94% 0.19in /  4.8mm 104 W/m2
14:22 37.6 °F /  3.1 °C 36 °F /  2.2 °C 30.1in /  1020.3hPa WSW 2.9mph /  4.7km/h 11mph /  17.7km/h 94% 0.17in /  4.3mm 105 W/m2
14:27 37.8 °F /  3.2 °C 36.1 °F /  2.3 °C 30.1in /  1020.3hPa NW 4mph /  6.4km/h 10mph /  16.1km/h 94% 0.17in /  4.3mm 146 W/m2
14:32 37.8 °F /  3.2 °C 36.1 °F /  2.3 °C 30.1in /  1020.3hPa WNW 4mph /  6.4km/h 9mph /  14.5km/h 94% 0.17in /  4.3mm 102 W/m2
14:37 37.8 °F /  3.2 °C 36.1 °F /  2.3 °C 30.1in /  1020.3hPa SSW 4mph /  6.4km/h 9mph /  14.5km/h 94% 0.17in /  4.3mm 102 W/m2
14:42 37.8 °F /  3.2 °C 36.1 °F /  2.3 °C 30.1in /  1020.7hPa West 6.9mph /  11.1km/h 9mph /  14.5km/h 94% 0.17in /  4.3mm 84 W/m2
14:47 37.9 °F /  3.3 °C 36.3 °F /  2.4 °C 30.1in /  1020.7hPa West 6mph /  9.7km/h 10mph /  16.1km/h 94% 0.16in /  4.1mm 69 W/m2
14:52 37.8 °F /  3.2 °C 36.1 °F /  2.3 °C 30.1in /  1020.7hPa West 6.9mph /  11.1km/h 8mph /  12.9km/h 94% 0.15in /  3.8mm 70 W/m2
14:57 37.8 °F /  3.2 °C 36.1 °F /  2.3 °C 30.1in /  1020.7hPa SW 2.9mph /  4.7km/h 7mph /  11.3km/h 94% 0.15in /  3.8mm 81 W/m2
15:02 37.8 °F /  3.2 °C 36.1 °F /  2.3 °C 30.1in /  1020.7hPa West 6.9mph /  11.1km/h 9mph /  14.5km/h 94% 0.14in /  3.6mm 69 W/m2
15:07 37.8 °F /  3.2 °C 36.1 °F /  2.3 °C 30.1in /  1020.7hPa WSW 8.9mph /  14.3km/h 9mph /  14.5km/h 94% 0.14in /  3.6mm 72 W/m2
15:12 37.8 °F /  3.2 °C 36.1 °F /  2.3 °C 30.1in /  1020.7hPa West 6mph /  9.7km/h 15mph /  24.1km/h 94% 0.14in /  3.6mm 42 W/m2
15:17 37.8 °F /  3.2 °C 36 °F /  2.2 °C 30.1in /  1020.7hPa West 8.9mph /  14.3km/h 13mph /  20.9km/h 93% 0.13in /  3.3mm 35 W/m2
15:22 37.6 °F /  3.1 °C 35.8 °F /  2.1 °C 30.2in /  1021.0hPa WNW 4.9mph /  7.9km/h 11mph /  17.7km/h 93% 0.13in /  3.3mm 37 W/m2
15:27 37.8 °F /  3.2 °C 36.1 °F /  2.3 °C 30.2in /  1021.0hPa WSW 10.1mph /  16.3km/h 13mph /  20.9km/h 94% 0.13in /  3.3mm 39 W/m2
15:32 37.8 °F /  3.2 °C 36 °F /  2.2 °C 30.2in /  1021.0hPa WNW 8.9mph /  14.3km/h 12mph /  19.3km/h 93% 0.12in /  3.0mm 28 W/m2
15:37 37.8 °F /  3.2 °C 36 °F /  2.2 °C 30.2in /  1021.0hPa WNW 4.9mph /  7.9km/h 9mph /  14.5km/h 93% 0.12in /  3.0mm 28 W/m2
15:42 37.8 °F /  3.2 °C 36 °F /  2.2 °C 30.2in /  1021.3hPa West 6.9mph /  11.1km/h 12mph /  19.3km/h 93% 0.11in /  2.8mm 30 W/m2
15:47 37.8 °F /  3.2 °C 36 °F /  2.2 °C 30.2in /  1021.3hPa WNW 4mph /  6.4km/h 10mph /  16.1km/h 93% 0.1in /  2.5mm 26 W/m2
15:52 37.8 °F /  3.2 °C 36 °F /  2.2 °C 30.2in /  1021.3hPa West 4mph /  6.4km/h 10mph /  16.1km/h 93% 0.1in /  2.5mm 26 W/m2
15:57 37.8 °F /  3.2 °C 36 °F /  2.2 °C 30.2in /  1021.3hPa West 8.1mph /  13km/h 10mph /  16.1km/h 93% 0.09in /  2.3mm 26 W/m2
16:02 37.8 °F /  3.2 °C 36 °F /  2.2 °C 30.2in /  1021.7hPa West 6.9mph /  11.1km/h 8mph /  12.9km/h 93% 0.09in /  2.3mm 26 W/m2
16:07 37.8 °F /  3.2 °C 36 °F /  2.2 °C 30.2in /  1022.0hPa West 4mph /  6.4km/h 14mph /  22.5km/h 93% 0.09in /  2.3mm 28 W/m2
16:12 37.6 °F /  3.1 °C 35.8 °F /  2.1 °C 30.2in /  1021.7hPa WNW 10.1mph /  16.3km/h 12mph /  19.3km/h 93% 0.08in /  2.0mm 26 W/m2
16:17 37.6 °F /  3.1 °C 35.8 °F /  2.1 °C 30.2in /  1022.0hPa West 8.1mph /  13km/h 14mph /  22.5km/h 93% 0.08in /  2.0mm 23 W/m2
16:22 37.8 °F /  3.2 °C 36 °F /  2.2 °C 30.2in /  1022.0hPa West 10.1mph /  16.3km/h 10mph /  16.1km/h 93% 0.08in /  2.0mm 21 W/m2
16:27 37.8 °F /  3.2 °C 36 °F /  2.2 °C 30.2in /  1022.0hPa WNW 8.1mph /  13km/h 12mph /  19.3km/h 93% 0.07in /  1.8mm 18 W/m2
16:32 37.8 °F /  3.2 °C 36 °F /  2.2 °C 30.2in /  1022.4hPa West 6mph /  9.7km/h 10mph /  16.1km/h 93% 0.07in /  1.8mm 12 W/m2
16:37 37.8 °F /  3.2 °C 36 °F /  2.2 °C 30.2in /  1022.4hPa West 6.9mph /  11.1km/h 12mph /  19.3km/h 93% 0.07in /  1.8mm 9 W/m2
16:42 37.8 °F /  3.2 °C 35.6 °F /  2 °C 30.2in /  1022.4hPa West 6mph /  9.7km/h 8mph /  12.9km/h 92% 0.07in /  1.8mm 9 W/m2
16:47 37.9 °F /  3.3 °C 36.1 °F /  2.3 °C 30.2in /  1022.7hPa West 6.9mph /  11.1km/h 11mph /  17.7km/h 93% 0.07in /  1.8mm 9 W/m2
16:52 37.9 °F /  3.3 °C 35.8 °F /  2.1 °C 30.2in /  1022.7hPa WSW 2.9mph /  4.7km/h 6mph /  9.7km/h 92% 0.07in /  1.8mm 7 W/m2
16:57 37.9 °F /  3.3 °C 35.8 °F /  2.1 °C 30.2in /  1022.7hPa WSW 6.9mph /  11.1km/h 9mph /  14.5km/h 92% 0.07in /  1.8mm 7 W/m2
17:02 37.8 °F /  3.2 °C 35.6 °F /  2 °C 30.2in /  1022.7hPa West 4mph /  6.4km/h 8mph /  12.9km/h 92% 0.06in /  1.5mm 5 W/m2
17:07 37.8 °F /  3.2 °C 35.6 °F /  2 °C 30.2in /  1022.7hPa West 4mph /  6.4km/h 8mph /  12.9km/h 92% 0.06in /  1.5mm 0 W/m2
17:12 37.8 °F /  3.2 °C 36 °F /  2.2 °C 30.2in /  1022.7hPa West 6.9mph /  11.1km/h 10mph /  16.1km/h 93% 0.06in /  1.5mm 0 W/m2
17:17 37.8 °F /  3.2 °C 36 °F /  2.2 °C 30.2in /  1022.7hPa West 6.9mph /  11.1km/h 9mph /  14.5km/h 93% 0.06in /  1.5mm 0 W/m2
17:22 37.8 °F /  3.2 °C 36 °F /  2.2 °C 30.2in /  1023.0hPa West 6.9mph /  11.1km/h 10mph /  16.1km/h 93% 0.06in /  1.5mm 0 W/m2
17:27 37.8 °F /  3.2 °C 36 °F /  2.2 °C 30.2in /  1022.7hPa NW 2.9mph /  4.7km/h 11mph /  17.7km/h 93% 0.06in /  1.5mm 0 W/m2
17:32 37.8 °F /  3.2 °C 36 °F /  2.2 °C 30.2in /  1022.7hPa NW 4.9mph /  7.9km/h 10mph /  16.1km/h 93% 0.06in /  1.5mm 0 W/m2
17:37 37.8 °F /  3.2 °C 36 °F /  2.2 °C 30.2in /  1023.0hPa WNW 4.9mph /  7.9km/h 14mph /  22.5km/h 93% 0.06in /  1.5mm 0 W/m2
17:42 37.8 °F /  3.2 °C 36 °F /  2.2 °C 30.2in /  1023.0hPa WSW 4.9mph /  7.9km/h 11mph /  17.7km/h 93% 0.06in /  1.5mm 0 W/m2
17:47 37.9 °F /  3.3 °C 36.1 °F /  2.3 °C 30.2in /  1023.0hPa West 8.1mph /  13km/h 13mph /  20.9km/h 93% 0.06in /  1.5mm 0 W/m2
17:52 37.9 °F /  3.3 °C 36.1 °F /  2.3 °C 30.2in /  1023.0hPa West 8.9mph /  14.3km/h 11mph /  17.7km/h 93% 0.06in /  1.5mm 0 W/m2
17:57 37.9 °F /  3.3 °C 36.1 °F /  2.3 °C 30.2in /  1023.4hPa WSW 4.9mph /  7.9km/h 10mph /  16.1km/h 93% 0.06in /  1.5mm 0 W/m2
18:02 37.9 °F /  3.3 °C 36.1 °F /  2.3 °C 30.2in /  1023.4hPa WNW 4mph /  6.4km/h 9mph /  14.5km/h 93% 0.07in /  1.8mm 0 W/m2
18:07 37.8 °F /  3.2 °C 36 °F /  2.2 °C 30.2in /  1023.4hPa West 8.1mph /  13km/h 10mph /  16.1km/h 93% 0.07in /  1.8mm 0 W/m2
18:12 37.8 °F /  3.2 °C 36 °F /  2.2 °C 30.2in /  1023.7hPa WNW 6.9mph /  11.1km/h 10mph /  16.1km/h 93% 0.07in /  1.8mm 0 W/m2
18:17 37.8 °F /  3.2 °C 36 °F /  2.2 °C 30.2in /  1023.7hPa West 10.1mph /  16.3km/h 10mph /  16.1km/h 93% 0.07in /  1.8mm 0 W/m2
18:22 37.8 °F /  3.2 °C 36 °F /  2.2 °C 30.2in /  1023.7hPa WNW 4.9mph /  7.9km/h 8mph /  12.9km/h 93% 0.06in /  1.5mm 0 W/m2
18:27 37.8 °F /  3.2 °C 36.1 °F /  2.3 °C 30.2in /  1023.7hPa WSW 4.9mph /  7.9km/h 11mph /  17.7km/h 94% 0.07in /  1.8mm 0 W/m2
18:32 37.8 °F /  3.2 °C 36 °F /  2.2 °C 30.2in /  1023.7hPa West 4mph /  6.4km/h 10mph /  16.1km/h 93% 0.07in /  1.8mm 0 W/m2
18:37 37.8 °F /  3.2 °C 36 °F /  2.2 °C 30.2in /  1024.0hPa WNW 6.9mph /  11.1km/h 12mph /  19.3km/h 93% 0.06in /  1.5mm 0 W/m2
18:42 37.8 °F /  3.2 °C 36 °F /  2.2 °C 30.2in /  1024.0hPa West 4mph /  6.4km/h 8mph /  12.9km/h 93% 0.06in /  1.5mm 0 W/m2
18:47 37.8 °F /  3.2 °C 36.1 °F /  2.3 °C 30.2in /  1024.0hPa West 6mph /  9.7km/h 12mph /  19.3km/h 94% 0.06in /  1.5mm 0 W/m2
18:52 37.8 °F /  3.2 °C 36 °F /  2.2 °C 30.2in /  1024.0hPa WNW 8.1mph /  13km/h 13mph /  20.9km/h 93% 0.06in /  1.5mm 0 W/m2
18:57 37.8 °F /  3.2 °C 36 °F /  2.2 °C 30.2in /  1024.0hPa West 4mph /  6.4km/h 8mph /  12.9km/h 93% 0.06in /  1.5mm 0 W/m2
19:02 37.6 °F /  3.1 °C 35.8 °F /  2.1 °C 30.2in /  1024.0hPa West 11mph /  17.7km/h 11mph /  17.7km/h 93% 0.06in /  1.5mm 0 W/m2
19:07 37.6 °F /  3.1 °C 36 °F /  2.2 °C 30.2in /  1024.0hPa WNW 6.9mph /  11.1km/h 8mph /  12.9km/h 94% 0.06in /  1.5mm 0 W/m2
19:12 37.6 °F /  3.1 °C 36 °F /  2.2 °C 30.2in /  1024.0hPa WNW 8.1mph /  13km/h 9mph /  14.5km/h 94% 0.06in /  1.5mm 0 W/m2
19:17 37.6 °F /  3.1 °C 36 °F /  2.2 °C 30.2in /  1024.0hPa WSW 2.9mph /  4.7km/h 11mph /  17.7km/h 94% 0.06in /  1.5mm 0 W/m2
19:22 37.4 °F /  3 °C 35.8 °F /  2.1 °C 30.2in /  1024.0hPa West 6mph /  9.7km/h 14mph /  22.5km/h 94% 0.05in /  1.3mm 0 W/m2
19:27 37.4 °F /  3 °C 35.8 °F /  2.1 °C 30.2in /  1024.0hPa WSW 4mph /  6.4km/h 12mph /  19.3km/h 94% 0.05in /  1.3mm 0 W/m2
19:32 37.2 °F /  2.9 °C 35.6 °F /  2 °C 30.2in /  1024.0hPa West 8.1mph /  13km/h 11mph /  17.7km/h 94% 0.05in /  1.3mm 0 W/m2
19:37 37.2 °F /  2.9 °C 35.6 °F /  2 °C 30.2in /  1024.0hPa West 6mph /  9.7km/h 11mph /  17.7km/h 94% 0.05in /  1.3mm 0 W/m2
19:42 37.2 °F /  2.9 °C 35.6 °F /  2 °C 30.2in /  1024.0hPa WSW 8.9mph /  14.3km/h 10mph /  16.1km/h 94% 0.05in /  1.3mm 0 W/m2
19:47 37.2 °F /  2.9 °C 35.6 °F /  2 °C 30.2in /  1024.0hPa WNW 6.9mph /  11.1km/h 17mph /  27.4km/h 94% 0.05in /  1.3mm 0 W/m2
19:52 37.2 °F /  2.9 °C 35.6 °F /  2 °C 30.2in /  1024.0hPa WNW 12.1mph /  19.5km/h 12mph /  19.3km/h 94% 0.05in /  1.3mm 0 W/m2
19:57 37 °F /  2.8 °C 35.4 °F /  1.9 °C 30.2in /  1024.0hPa SW 2.9mph /  4.7km/h 17mph /  27.4km/h 94% 0.04in /  1.0mm 0 W/m2
20:02 37 °F /  2.8 °C 35.4 °F /  1.9 °C 30.2in /  1024.0hPa West 6.9mph /  11.1km/h 10mph /  16.1km/h 94% 0.05in /  1.3mm 0 W/m2
20:07 37 °F /  2.8 °C 35.4 °F /  1.9 °C 30.2in /  1024.0hPa West 6mph /  9.7km/h 12mph /  19.3km/h 94% 0.04in /  1.0mm 0 W/m2
20:12 37 °F /  2.8 °C 35.4 °F /  1.9 °C 30.2in /  1024.0hPa WNW 10.1mph /  16.3km/h 13mph /  20.9km/h 94% 0.04in /  1.0mm 0 W/m2
20:17 36.9 °F /  2.7 °C 35.2 °F /  1.8 °C 30.2in /  1024.0hPa West 4mph /  6.4km/h 13mph /  20.9km/h 94% 0.04in /  1.0mm 0 W/m2
20:22 36.7 °F /  2.6 °C 35.1 °F /  1.7 °C 30.2in /  1024.0hPa WSW 8.9mph /  14.3km/h 11mph /  17.7km/h 94% 0.04in /  1.0mm 0 W/m2
20:27 36.7 °F /  2.6 °C 35.1 °F /  1.7 °C 30.2in /  1024.0hPa West 8.9mph /  14.3km/h 10mph /  16.1km/h 94% 0.04in /  1.0mm 0 W/m2
20:32 36.7 °F /  2.6 °C 35.1 °F /  1.7 °C 30.2in /  1024.0hPa West 8.9mph /  14.3km/h 14mph /  22.5km/h 94% 0.04in /  1.0mm 0 W/m2
20:38 36.7 °F /  2.6 °C 35.1 °F /  1.7 °C 30.3in /  1024.4hPa West 11mph /  17.7km/h 15mph /  24.1km/h 94% 0.04in /  1.0mm 0 W/m2
20:43 36.7 °F /  2.6 °C 35.1 °F /  1.7 °C 30.2in /  1024.0hPa West 6.9mph /  11.1km/h 10mph /  16.1km/h 94% 0.03in /  0.8mm 0 W/m2
20:48 36.7 °F /  2.6 °C 35.1 °F /  1.7 °C 30.2in /  1024.0hPa SW 4.9mph /  7.9km/h 15mph /  24.1km/h 94% 0.03in /  0.8mm 0 W/m2
20:53 36.9 °F /  2.7 °C 35.2 °F /  1.8 °C 30.2in /  1024.0hPa WNW 6mph /  9.7km/h 12mph /  19.3km/h 94% 0.03in /  0.8mm 0 W/m2
20:58 36.9 °F /  2.7 °C 35.2 °F /  1.8 °C 30.3in /  1024.4hPa West 8.1mph /  13km/h 14mph /  22.5km/h 94% 0.03in /  0.8mm 0 W/m2
21:03 36.9 °F /  2.7 °C 35.2 °F /  1.8 °C 30.3in /  1024.4hPa West 6.9mph /  11.1km/h 13mph /  20.9km/h 94% 0.02in /  0.5mm 0 W/m2
21:08 36.9 °F /  2.7 °C 35.2 °F /  1.8 °C 30.3in /  1024.4hPa West 8.1mph /  13km/h 14mph /  22.5km/h 94% 0.03in /  0.8mm 0 W/m2
21:13 36.9 °F /  2.7 °C 35.1 °F /  1.7 °C 30.3in /  1024.4hPa WNW 10.1mph /  16.3km/h 13mph /  20.9km/h 93% 0.03in /  0.8mm 0 W/m2
21:18 36.9 °F /  2.7 °C 35.1 °F /  1.7 °C 30.3in /  1024.4hPa WNW 6.9mph /  11.1km/h 11mph /  17.7km/h 93% 0.03in /  0.8mm 0 W/m2
21:23 36.9 °F /  2.7 °C 35.1 °F /  1.7 °C 30.3in /  1024.7hPa WNW 6mph /  9.7km/h 11mph /  17.7km/h 93% 0.03in /  0.8mm 0 W/m2
21:28 36.9 °F /  2.7 °C 35.2 °F /  1.8 °C 30.3in /  1024.7hPa WNW 6.9mph /  11.1km/h 10mph /  16.1km/h 94% 0.03in /  0.8mm 0 W/m2
21:33 36.7 °F /  2.6 °C 35.1 °F /  1.7 °C 30.3in /  1025.1hPa WNW 4.9mph /  7.9km/h 10mph /  16.1km/h 94% 0.02in /  0.5mm 0 W/m2
21:38 36.7 °F /  2.6 °C 35.1 °F /  1.7 °C 30.3in /  1025.1hPa WSW 6.9mph /  11.1km/h 9mph /  14.5km/h 94% 0.03in /  0.8mm 0 W/m2
21:43 36.7 °F /  2.6 °C 35.1 °F /  1.7 °C 30.3in /  1025.1hPa West 11mph /  17.7km/h 12mph /  19.3km/h 94% 0.03in /  0.8mm 0 W/m2
21:48 36.7 °F /  2.6 °C 35.1 °F /  1.7 °C 30.3in /  1025.1hPa WNW 6.9mph /  11.1km/h 10mph /  16.1km/h 94% 0.03in /  0.8mm 0 W/m2
21:53 36.7 °F /  2.6 °C 35.1 °F /  1.7 °C 30.3in /  1025.1hPa WNW 4mph /  6.4km/h 12mph /  19.3km/h 94% 0.02in /  0.5mm 0 W/m2
21:58 36.7 °F /  2.6 °C 35.1 °F /  1.7 °C 30.3in /  1025.1hPa WSW 8.1mph /  13km/h 10mph /  16.1km/h 94% 0.03in /  0.8mm 0 W/m2
22:03 36.7 °F /  2.6 °C 35.1 °F /  1.7 °C 30.3in /  1025.1hPa West 6mph /  9.7km/h 8mph /  12.9km/h 94% 0.03in /  0.8mm 0 W/m2
22:08 36.7 °F /  2.6 °C 35.1 °F /  1.7 °C 30.3in /  1025.1hPa West 6mph /  9.7km/h 9mph /  14.5km/h 94% 0.02in /  0.5mm 0 W/m2
22:13 36.7 °F /  2.6 °C 34.9 °F /  1.6 °C 30.3in /  1025.1hPa NW 6mph /  9.7km/h 9mph /  14.5km/h 93% 0.02in /  0.5mm 0 W/m2
22:18 36.7 °F /  2.6 °C 35.1 °F /  1.7 °C 30.3in /  1025.1hPa WSW 8.1mph /  13km/h 9mph /  14.5km/h 94% 0.02in /  0.5mm 0 W/m2
22:23 36.7 °F /  2.6 °C 34.9 °F /  1.6 °C 30.3in /  1025.1hPa West 4mph /  6.4km/h 11mph /  17.7km/h 93% 0.02in /  0.5mm 0 W/m2
22:28 36.3 °F /  2.4 °C 34.5 °F /  1.4 °C 30.3in /  1025.1hPa West 6mph /  9.7km/h 9mph /  14.5km/h 93% 0.02in /  0.5mm 0 W/m2
22:33 36.3 °F /  2.4 °C 34.5 °F /  1.4 °C 30.3in /  1025.1hPa West 8.1mph /  13km/h 11mph /  17.7km/h 93% 0.02in /  0.5mm 0 W/m2
22:38 36.5 °F /  2.5 °C 34.7 °F /  1.5 °C 30.3in /  1025.1hPa WNW 6.9mph /  11.1km/h 8mph /  12.9km/h 93% 0.02in /  0.5mm 0 W/m2
22:43 36.5 °F /  2.5 °C 34.7 °F /  1.5 °C 30.3in /  1025.1hPa WNW 4.9mph /  7.9km/h 10mph /  16.1km/h 93% 0.02in /  0.5mm 0 W/m2
22:48 36.5 °F /  2.5 °C 34.7 °F /  1.5 °C 30.3in /  1025.1hPa West 6mph /  9.7km/h 8mph /  12.9km/h 93% 0.02in /  0.5mm 0 W/m2
22:53 36.7 °F /  2.6 °C 34.9 °F /  1.6 °C 30.3in /  1025.1hPa West 6mph /  9.7km/h 10mph /  16.1km/h 93% 0.02in /  0.5mm 0 W/m2
22:58 36.7 °F /  2.6 °C 34.9 °F /  1.6 °C 30.3in /  1025.1hPa West 6.9mph /  11.1km/h 8mph /  12.9km/h 93% 0.01in /  0.2mm 0 W/m2
23:03 36.9 °F /  2.7 °C 35.1 °F /  1.7 °C 30.3in /  1025.4hPa West 6mph /  9.7km/h 11mph /  17.7km/h 93% 0.01in /  0.2mm 0 W/m2
23:08 36.9 °F /  2.7 °C 34.7 °F /  1.5 °C 30.3in /  1025.4hPa West 4mph /  6.4km/h 9mph /  14.5km/h 92% 0.02in /  0.5mm 0 W/m2
23:13 36.9 °F /  2.7 °C 34.7 °F /  1.5 °C 30.3in /  1025.4hPa WNW 8.9mph /  14.3km/h 10mph /  16.1km/h 92% 0.02in /  0.5mm 0 W/m2
23:18 37 °F /  2.8 °C 34.9 °F /  1.6 °C 30.3in /  1025.4hPa WSW 4.9mph /  7.9km/h 11mph /  17.7km/h 92% 0.02in /  0.5mm 0 W/m2
23:23 37 °F /  2.8 °C 34.9 °F /  1.6 °C 30.3in /  1025.4hPa NW 2.9mph /  4.7km/h 8mph /  12.9km/h 92% 0.01in /  0.2mm 0 W/m2
23:28 36.9 °F /  2.7 °C 34.7 °F /  1.5 °C 30.3in /  1025.4hPa West 2.9mph /  4.7km/h 7mph /  11.3km/h 92% 0.01in /  0.2mm 0 W/m2
23:33 36.9 °F /  2.7 °C 34.7 °F /  1.5 °C 30.3in /  1025.4hPa WNW 2mph /  3.2km/h 7mph /  11.3km/h 92% 0.01in /  0.2mm 0 W/m2
23:38 36.7 °F /  2.6 °C 34.5 °F /  1.4 °C 30.3in /  1025.4hPa WNW 2.9mph /  4.7km/h 8mph /  12.9km/h 92% 0.01in /  0.2mm 0 W/m2
23:43 36.7 °F /  2.6 °C 34.5 °F /  1.4 °C 30.3in /  1025.4hPa WNW 2.9mph /  4.7km/h 4mph /  6.4km/h 92% 0.01in /  0.2mm 0 W/m2
23:48 36.7 °F /  2.6 °C 34.5 °F /  1.4 °C 30.3in /  1025.4hPa WNW 2.9mph /  4.7km/h 5mph /  8km/h 92% 0.01in /  0.2mm 0 W/m2
23:53 36.5 °F /  2.5 °C 34.3 °F /  1.3 °C 30.3in /  1025.4hPa WNW 2mph /  3.2km/h 4mph /  6.4km/h 92% 0.01in /  0.2mm 0 W/m2
23:58 36.3 °F /  2.4 °C 34.2 °F /  1.2 °C 30.3in /  1025.4hPa WSW 4mph /  6.4km/h 4mph /  6.4km/h 92% 0.01in /  0.2mm 0 W/m2
Juneau County Weather
Compliments of Weather Underground - 4 mb